sensor_id;sensor_type;location;lat;lon;timestamp;P1;durP1;ratioP1;P2;durP2;ratioP2
7835;SDS011;3963;42.658;23.298;2023-09-07T00:00:46;10.63;;;7.60;;
7835;SDS011;3963;42.658;23.298;2023-09-07T00:03:13;11.53;;;7.17;;
7835;SDS011;3963;42.658;23.298;2023-09-07T00:05:40;10.90;;;7.70;;
7835;SDS011;3963;42.658;23.298;2023-09-07T00:08:07;13.63;;;8.20;;
7835;SDS011;3963;42.658;23.298;2023-09-07T00:10:34;9.50;;;7.70;;
7835;SDS011;3963;42.658;23.298;2023-09-07T00:13:01;10.77;;;7.03;;
7835;SDS011;3963;42.658;23.298;2023-09-07T00:15:29;10.63;;;8.00;;
7835;SDS011;3963;42.658;23.298;2023-09-07T00:18:01;12.40;;;7.97;;
7835;SDS011;3963;42.658;23.298;2023-09-07T00:20:28;11.50;;;8.47;;
7835;SDS011;3963;42.658;23.298;2023-09-07T00:22:55;12.43;;;8.40;;
7835;SDS011;3963;42.658;23.298;2023-09-07T00:25:22;10.83;;;8.50;;
7835;SDS011;3963;42.658;23.298;2023-09-07T00:27:49;13.77;;;8.97;;
7835;SDS011;3963;42.658;23.298;2023-09-07T00:30:16;11.73;;;8.60;;
7835;SDS011;3963;42.658;23.298;2023-09-07T00:32:44;14.73;;;8.77;;
7835;SDS011;3963;42.658;23.298;2023-09-07T00:35:11;11.03;;;8.77;;
7835;SDS011;3963;42.658;23.298;2023-09-07T00:37:38;12.53;;;9.37;;
7835;SDS011;3963;42.658;23.298;2023-09-07T00:40:05;12.57;;;9.87;;
7835;SDS011;3963;42.658;23.298;2023-09-07T00:42:34;14.00;;;10.53;;
7835;SDS011;3963;42.658;23.298;2023-09-07T00:45:01;14.47;;;10.93;;
7835;SDS011;3963;42.658;23.298;2023-09-07T00:47:30;17.00;;;11.07;;
7835;SDS011;3963;42.658;23.298;2023-09-07T00:50:01;15.60;;;11.40;;
7835;SDS011;3963;42.658;23.298;2023-09-07T00:52:29;13.30;;;11.27;;
7835;SDS011;3963;42.658;23.298;2023-09-07T00:54:57;15.53;;;11.60;;
7835;SDS011;3963;42.658;23.298;2023-09-07T00:57:24;15.20;;;13.17;;
7835;SDS011;3963;42.658;23.298;2023-09-07T00:59:52;17.17;;;12.90;;
7835;SDS011;3963;42.658;23.298;2023-09-07T01:02:19;15.83;;;12.73;;
7835;SDS011;3963;42.658;23.298;2023-09-07T01:04:45;16.97;;;13.70;;
7835;SDS011;3963;42.658;23.298;2023-09-07T01:07:16;17.87;;;13.47;;
7835;SDS011;3963;42.658;23.298;2023-09-07T01:09:47;16.30;;;12.97;;
7835;SDS011;3963;42.658;23.298;2023-09-07T01:12:17;15.47;;;12.97;;
7835;SDS011;3963;42.658;23.298;2023-09-07T01:14:45;18.67;;;13.80;;
7835;SDS011;3963;42.658;23.298;2023-09-07T01:17:12;18.97;;;14.20;;
7835;SDS011;3963;42.658;23.298;2023-09-07T01:19:39;16.80;;;13.37;;
7835;SDS011;3963;42.658;23.298;2023-09-07T01:22:08;22.13;;;14.17;;
7835;SDS011;3963;42.658;23.298;2023-09-07T01:24:35;18.10;;;14.43;;
7835;SDS011;3963;42.658;23.298;2023-09-07T01:27:05;18.20;;;14.30;;
7835;SDS011;3963;42.658;23.298;2023-09-07T01:29:31;23.30;;;13.70;;
7835;SDS011;3963;42.658;23.298;2023-09-07T01:31:59;17.23;;;13.80;;
7835;SDS011;3963;42.658;23.298;2023-09-07T01:34:26;17.03;;;13.97;;
7835;SDS011;3963;42.658;23.298;2023-09-07T01:36:53;18.73;;;14.60;;
7835;SDS011;3963;42.658;23.298;2023-09-07T01:39:21;19.97;;;14.80;;
7835;SDS011;3963;42.658;23.298;2023-09-07T01:41:48;20.17;;;14.40;;
7835;SDS011;3963;42.658;23.298;2023-09-07T01:44:15;18.10;;;15.13;;
7835;SDS011;3963;42.658;23.298;2023-09-07T01:46:42;21.77;;;14.70;;
7835;SDS011;3963;42.658;23.298;2023-09-07T01:49:09;20.20;;;14.87;;
7835;SDS011;3963;42.658;23.298;2023-09-07T01:51:36;17.50;;;13.73;;
7835;SDS011;3963;42.658;23.298;2023-09-07T01:54:03;23.57;;;14.63;;
7835;SDS011;3963;42.658;23.298;2023-09-07T01:56:32;19.17;;;14.73;;
7835;SDS011;3963;42.658;23.298;2023-09-07T01:58:58;20.53;;;15.37;;
7835;SDS011;3963;42.658;23.298;2023-09-07T02:01:25;20.57;;;14.90;;
7835;SDS011;3963;42.658;23.298;2023-09-07T02:03:54;20.57;;;14.87;;
7835;SDS011;3963;42.658;23.298;2023-09-07T02:06:22;21.97;;;14.67;;
7835;SDS011;3963;42.658;23.298;2023-09-07T02:08:49;18.27;;;14.50;;
7835;SDS011;3963;42.658;23.298;2023-09-07T02:11:15;19.47;;;13.87;;
7835;SDS011;3963;42.658;23.298;2023-09-07T02:13:45;18.67;;;14.70;;
7835;SDS011;3963;42.658;23.298;2023-09-07T02:16:13;19.63;;;14.77;;
7835;SDS011;3963;42.658;23.298;2023-09-07T02:18:41;20.03;;;14.70;;
7835;SDS011;3963;42.658;23.298;2023-09-07T02:21:10;18.77;;;15.00;;
7835;SDS011;3963;42.658;23.298;2023-09-07T02:23:37;18.73;;;14.20;;
7835;SDS011;3963;42.658;23.298;2023-09-07T02:26:04;19.33;;;14.93;;
7835;SDS011;3963;42.658;23.298;2023-09-07T02:28:31;19.27;;;15.23;;
7835;SDS011;3963;42.658;23.298;2023-09-07T02:31:03;20.97;;;14.40;;
7835;SDS011;3963;42.658;23.298;2023-09-07T02:33:31;17.77;;;13.87;;
7835;SDS011;3963;42.658;23.298;2023-09-07T02:35:58;19.87;;;14.37;;
7835;SDS011;3963;42.658;23.298;2023-09-07T02:38:24;15.97;;;12.83;;
7835;SDS011;3963;42.658;23.298;2023-09-07T02:40:51;17.47;;;14.00;;
7835;SDS011;3963;42.658;23.298;2023-09-07T02:43:18;18.80;;;13.50;;
7835;SDS011;3963;42.658;23.298;2023-09-07T02:45:45;20.43;;;14.47;;
7835;SDS011;3963;42.658;23.298;2023-09-07T02:48:13;18.33;;;14.20;;
7835;SDS011;3963;42.658;23.298;2023-09-07T02:53:28;21.20;;;15.40;;
7835;SDS011;3963;42.658;23.298;2023-09-07T02:55:55;22.67;;;14.93;;
7835;SDS011;3963;42.658;23.298;2023-09-07T02:58:22;19.90;;;14.80;;
7835;SDS011;3963;42.658;23.298;2023-09-07T03:00:49;18.70;;;15.47;;
7835;SDS011;3963;42.658;23.298;2023-09-07T03:03:18;20.00;;;14.80;;
7835;SDS011;3963;42.658;23.298;2023-09-07T03:05:44;18.90;;;16.27;;
7835;SDS011;3963;42.658;23.298;2023-09-07T03:08:11;23.93;;;16.70;;
7835;SDS011;3963;42.658;23.298;2023-09-07T03:10:38;21.43;;;16.13;;
7835;SDS011;3963;42.658;23.298;2023-09-07T03:13:07;21.30;;;17.00;;
7835;SDS011;3963;42.658;23.298;2023-09-07T03:15:34;24.90;;;15.40;;
7835;SDS011;3963;42.658;23.298;2023-09-07T03:18:01;22.37;;;17.27;;
7835;SDS011;3963;42.658;23.298;2023-09-07T03:20:30;20.27;;;15.37;;
7835;SDS011;3963;42.658;23.298;2023-09-07T03:22:59;24.03;;;17.50;;
7835;SDS011;3963;42.658;23.298;2023-09-07T03:25:26;22.13;;;16.40;;
7835;SDS011;3963;42.658;23.298;2023-09-07T03:27:53;20.20;;;15.57;;
7835;SDS011;3963;42.658;23.298;2023-09-07T03:30:20;25.50;;;16.67;;
7835;SDS011;3963;42.658;23.298;2023-09-07T03:32:47;23.63;;;16.43;;
7835;SDS011;3963;42.658;23.298;2023-09-07T03:35:14;23.80;;;17.13;;
7835;SDS011;3963;42.658;23.298;2023-09-07T03:37:43;24.53;;;18.17;;
7835;SDS011;3963;42.658;23.298;2023-09-07T03:40:10;26.27;;;18.10;;
7835;SDS011;3963;42.658;23.298;2023-09-07T03:42:37;21.33;;;17.40;;
7835;SDS011;3963;42.658;23.298;2023-09-07T03:45:04;21.33;;;17.33;;
7835;SDS011;3963;42.658;23.298;2023-09-07T03:47:32;24.97;;;18.37;;
7835;SDS011;3963;42.658;23.298;2023-09-07T03:49:59;24.07;;;17.70;;
7835;SDS011;3963;42.658;23.298;2023-09-07T03:52:26;23.40;;;17.50;;
7835;SDS011;3963;42.658;23.298;2023-09-07T03:54:55;28.47;;;19.47;;
7835;SDS011;3963;42.658;23.298;2023-09-07T03:57:22;23.93;;;17.30;;
7835;SDS011;3963;42.658;23.298;2023-09-07T03:59:50;28.83;;;18.33;;
7835;SDS011;3963;42.658;23.298;2023-09-07T04:02:17;25.93;;;18.50;;
7835;SDS011;3963;42.658;23.298;2023-09-07T04:04:46;24.17;;;17.77;;
7835;SDS011;3963;42.658;23.298;2023-09-07T04:07:14;23.37;;;17.77;;
7835;SDS011;3963;42.658;23.298;2023-09-07T04:09:41;21.90;;;17.87;;
7835;SDS011;3963;42.658;23.298;2023-09-07T04:12:10;24.23;;;17.50;;
7835;SDS011;3963;42.658;23.298;2023-09-07T04:14:37;22.93;;;16.67;;
7835;SDS011;3963;42.658;23.298;2023-09-07T04:17:04;22.93;;;16.57;;
7835;SDS011;3963;42.658;23.298;2023-09-07T04:19:31;23.00;;;17.47;;
7835;SDS011;3963;42.658;23.298;2023-09-07T04:21:58;21.90;;;16.43;;
7835;SDS011;3963;42.658;23.298;2023-09-07T04:24:24;21.60;;;16.27;;
7835;SDS011;3963;42.658;23.298;2023-09-07T04:26:52;20.33;;;15.77;;
7835;SDS011;3963;42.658;23.298;2023-09-07T04:29:20;24.20;;;17.20;;
7835;SDS011;3963;42.658;23.298;2023-09-07T04:31:47;23.33;;;17.10;;
7835;SDS011;3963;42.658;23.298;2023-09-07T04:34:14;22.70;;;17.80;;
7835;SDS011;3963;42.658;23.298;2023-09-07T04:36:40;24.53;;;17.60;;
7835;SDS011;3963;42.658;23.298;2023-09-07T04:39:07;21.53;;;15.93;;
7835;SDS011;3963;42.658;23.298;2023-09-07T04:41:34;21.63;;;16.13;;
7835;SDS011;3963;42.658;23.298;2023-09-07T04:44:01;25.93;;;16.93;;
7835;SDS011;3963;42.658;23.298;2023-09-07T04:46:28;23.13;;;18.50;;
7835;SDS011;3963;42.658;23.298;2023-09-07T04:48:55;21.97;;;17.67;;
7835;SDS011;3963;42.658;23.298;2023-09-07T04:51:22;22.53;;;16.93;;
7835;SDS011;3963;42.658;23.298;2023-09-07T04:53:50;25.10;;;18.50;;
7835;SDS011;3963;42.658;23.298;2023-09-07T04:56:17;25.17;;;17.17;;
7835;SDS011;3963;42.658;23.298;2023-09-07T04:58:45;20.97;;;16.30;;
7835;SDS011;3963;42.658;23.298;2023-09-07T05:01:12;24.37;;;16.93;;
7835;SDS011;3963;42.658;23.298;2023-09-07T05:03:41;23.43;;;16.80;;
7835;SDS011;3963;42.658;23.298;2023-09-07T05:06:08;23.40;;;16.77;;
7835;SDS011;3963;42.658;23.298;2023-09-07T05:08:35;24.00;;;15.80;;
7835;SDS011;3963;42.658;23.298;2023-09-07T05:11:03;24.57;;;16.87;;
7835;SDS011;3963;42.658;23.298;2023-09-07T05:13:32;24.13;;;15.23;;
7835;SDS011;3963;42.658;23.298;2023-09-07T05:15:59;18.57;;;13.93;;
7835;SDS011;3963;42.658;23.298;2023-09-07T05:18:26;22.63;;;14.80;;
7835;SDS011;3963;42.658;23.298;2023-09-07T05:20:55;20.03;;;13.67;;
7835;SDS011;3963;42.658;23.298;2023-09-07T05:23:22;18.83;;;12.93;;
7835;SDS011;3963;42.658;23.298;2023-09-07T05:25:52;25.13;;;15.40;;
7835;SDS011;3963;42.658;23.298;2023-09-07T05:28:20;22.33;;;14.77;;
7835;SDS011;3963;42.658;23.298;2023-09-07T05:30:48;19.93;;;13.13;;
7835;SDS011;3963;42.658;23.298;2023-09-07T05:33:15;22.80;;;14.40;;
7835;SDS011;3963;42.658;23.298;2023-09-07T05:35:44;22.20;;;14.10;;
7835;SDS011;3963;42.658;23.298;2023-09-07T05:38:13;21.80;;;14.63;;
7835;SDS011;3963;42.658;23.298;2023-09-07T05:40:40;22.93;;;14.80;;
7835;SDS011;3963;42.658;23.298;2023-09-07T05:43:09;20.13;;;15.33;;
7835;SDS011;3963;42.658;23.298;2023-09-07T05:45:36;22.70;;;15.77;;
7835;SDS011;3963;42.658;23.298;2023-09-07T05:48:05;20.43;;;15.93;;
7835;SDS011;3963;42.658;23.298;2023-09-07T05:50:33;19.30;;;15.00;;
7835;SDS011;3963;42.658;23.298;2023-09-07T05:53:01;21.83;;;15.40;;
7835;SDS011;3963;42.658;23.298;2023-09-07T05:55:30;27.20;;;15.70;;
7835;SDS011;3963;42.658;23.298;2023-09-07T05:57:57;21.90;;;14.73;;
7835;SDS011;3963;42.658;23.298;2023-09-07T06:00:24;22.43;;;14.90;;
7835;SDS011;3963;42.658;23.298;2023-09-07T06:02:51;24.10;;;15.47;;
7835;SDS011;3963;42.658;23.298;2023-09-07T06:05:18;19.00;;;14.40;;
7835;SDS011;3963;42.658;23.298;2023-09-07T06:07:45;21.63;;;15.17;;
7835;SDS011;3963;42.658;23.298;2023-09-07T06:10:12;21.80;;;14.70;;
7835;SDS011;3963;42.658;23.298;2023-09-07T06:12:41;23.30;;;16.27;;
7835;SDS011;3963;42.658;23.298;2023-09-07T06:15:08;20.00;;;14.30;;
7835;SDS011;3963;42.658;23.298;2023-09-07T06:17:35;22.37;;;13.33;;
7835;SDS011;3963;42.658;23.298;2023-09-07T06:20:02;18.80;;;12.80;;
7835;SDS011;3963;42.658;23.298;2023-09-07T06:22:31;15.87;;;11.73;;
7835;SDS011;3963;42.658;23.298;2023-09-07T06:24:58;16.80;;;11.50;;
7835;SDS011;3963;42.658;23.298;2023-09-07T06:27:24;18.17;;;11.37;;
7835;SDS011;3963;42.658;23.298;2023-09-07T06:29:54;14.47;;;10.40;;
7835;SDS011;3963;42.658;23.298;2023-09-07T06:32:21;16.50;;;11.37;;
7835;SDS011;3963;42.658;23.298;2023-09-07T06:34:48;13.93;;;10.53;;
7835;SDS011;3963;42.658;23.298;2023-09-07T06:37:14;15.53;;;10.70;;
7835;SDS011;3963;42.658;23.298;2023-09-07T06:39:41;15.60;;;9.67;;
7835;SDS011;3963;42.658;23.298;2023-09-07T06:42:09;11.87;;;9.30;;
7835;SDS011;3963;42.658;23.298;2023-09-07T06:44:36;15.97;;;9.67;;
7835;SDS011;3963;42.658;23.298;2023-09-07T06:47:04;11.70;;;8.73;;
7835;SDS011;3963;42.658;23.298;2023-09-07T06:49:31;12.37;;;9.03;;
7835;SDS011;3963;42.658;23.298;2023-09-07T06:51:57;13.53;;;8.93;;
7835;SDS011;3963;42.658;23.298;2023-09-07T06:54:24;13.63;;;9.03;;
7835;SDS011;3963;42.658;23.298;2023-09-07T06:56:51;10.57;;;8.37;;
7835;SDS011;3963;42.658;23.298;2023-09-07T06:59:20;12.20;;;7.83;;
7835;SDS011;3963;42.658;23.298;2023-09-07T07:01:46;12.90;;;7.70;;
7835;SDS011;3963;42.658;23.298;2023-09-07T07:04:14;9.77;;;7.70;;
7835;SDS011;3963;42.658;23.298;2023-09-07T07:06:41;10.57;;;7.70;;
7835;SDS011;3963;42.658;23.298;2023-09-07T07:09:08;13.93;;;7.67;;
7835;SDS011;3963;42.658;23.298;2023-09-07T07:11:36;12.27;;;7.73;;
7835;SDS011;3963;42.658;23.298;2023-09-07T07:14:04;15.00;;;8.27;;
7835;SDS011;3963;42.658;23.298;2023-09-07T07:16:31;12.20;;;7.83;;
7835;SDS011;3963;42.658;23.298;2023-09-07T07:18:58;10.17;;;8.67;;
7835;SDS011;3963;42.658;23.298;2023-09-07T07:21:27;9.33;;;7.83;;
7835;SDS011;3963;42.658;23.298;2023-09-07T07:23:53;9.57;;;8.03;;
7835;SDS011;3963;42.658;23.298;2023-09-07T07:26:20;11.70;;;8.80;;
7835;SDS011;3963;42.658;23.298;2023-09-07T07:28:47;10.37;;;8.03;;
7835;SDS011;3963;42.658;23.298;2023-09-07T07:31:14;10.40;;;7.70;;
7835;SDS011;3963;42.658;23.298;2023-09-07T07:33:40;10.57;;;8.47;;
7835;SDS011;3963;42.658;23.298;2023-09-07T07:36:08;15.07;;;7.90;;
7835;SDS011;3963;42.658;23.298;2023-09-07T07:38:37;14.27;;;8.67;;
7835;SDS011;3963;42.658;23.298;2023-09-07T07:41:04;12.53;;;8.37;;
7835;SDS011;3963;42.658;23.298;2023-09-07T07:43:32;12.17;;;9.20;;
7835;SDS011;3963;42.658;23.298;2023-09-07T07:45:59;11.47;;;8.90;;
7835;SDS011;3963;42.658;23.298;2023-09-07T07:48:26;18.13;;;9.80;;
7835;SDS011;3963;42.658;23.298;2023-09-07T07:50:53;12.60;;;9.33;;
7835;SDS011;3963;42.658;23.298;2023-09-07T07:53:20;9.63;;;8.63;;
7835;SDS011;3963;42.658;23.298;2023-09-07T07:55:48;12.70;;;9.33;;
7835;SDS011;3963;42.658;23.298;2023-09-07T07:58:15;14.00;;;8.70;;
7835;SDS011;3963;42.658;23.298;2023-09-07T08:00:42;11.63;;;9.30;;
7835;SDS011;3963;42.658;23.298;2023-09-07T08:03:12;10.93;;;8.90;;
7835;SDS011;3963;42.658;23.298;2023-09-07T08:05:39;10.87;;;8.63;;
7835;SDS011;3963;42.658;23.298;2023-09-07T08:08:08;13.97;;;8.73;;
7835;SDS011;3963;42.658;23.298;2023-09-07T08:10:35;9.33;;;7.87;;
7835;SDS011;3963;42.658;23.298;2023-09-07T08:13:04;11.67;;;8.03;;
7835;SDS011;3963;42.658;23.298;2023-09-07T08:15:31;12.77;;;8.80;;
7835;SDS011;3963;42.658;23.298;2023-09-07T08:17:58;11.77;;;7.73;;
7835;SDS011;3963;42.658;23.298;2023-09-07T08:20:25;10.07;;;8.30;;
7835;SDS011;3963;42.658;23.298;2023-09-07T08:22:55;10.27;;;8.30;;
7835;SDS011;3963;42.658;23.298;2023-09-07T08:25:24;12.17;;;8.63;;
7835;SDS011;3963;42.658;23.298;2023-09-07T08:27:52;10.97;;;7.97;;
7835;SDS011;3963;42.658;23.298;2023-09-07T08:30:24;9.90;;;7.70;;
7835;SDS011;3963;42.658;23.298;2023-09-07T08:32:51;11.63;;;7.93;;
7835;SDS011;3963;42.658;23.298;2023-09-07T08:35:17;10.80;;;6.33;;
7835;SDS011;3963;42.658;23.298;2023-09-07T08:37:45;8.00;;;6.67;;
7835;SDS011;3963;42.658;23.298;2023-09-07T08:40:15;11.07;;;7.27;;
7835;SDS011;3963;42.658;23.298;2023-09-07T08:42:43;10.47;;;7.70;;
7835;SDS011;3963;42.658;23.298;2023-09-07T08:45:10;9.27;;;6.70;;
7835;SDS011;3963;42.658;23.298;2023-09-07T08:47:43;8.13;;;7.07;;
7835;SDS011;3963;42.658;23.298;2023-09-07T08:50:11;9.47;;;6.60;;
7835;SDS011;3963;42.658;23.298;2023-09-07T08:52:39;10.70;;;6.70;;
7835;SDS011;3963;42.658;23.298;2023-09-07T08:55:07;7.87;;;6.63;;
7835;SDS011;3963;42.658;23.298;2023-09-07T08:57:36;9.57;;;7.37;;
7835;SDS011;3963;42.658;23.298;2023-09-07T09:00:03;8.17;;;6.70;;
7835;SDS011;3963;42.658;23.298;2023-09-07T09:02:33;9.20;;;6.80;;
7835;SDS011;3963;42.658;23.298;2023-09-07T09:05:03;7.80;;;6.80;;
7835;SDS011;3963;42.658;23.298;2023-09-07T09:07:31;10.43;;;6.30;;
7835;SDS011;3963;42.658;23.298;2023-09-07T09:10:04;9.30;;;6.40;;
7835;SDS011;3963;42.658;23.298;2023-09-07T09:12:32;11.40;;;6.20;;
7835;SDS011;3963;42.658;23.298;2023-09-07T09:14:59;9.00;;;7.20;;
7835;SDS011;3963;42.658;23.298;2023-09-07T09:17:28;11.60;;;5.97;;
7835;SDS011;3963;42.658;23.298;2023-09-07T09:19:55;9.50;;;5.70;;
7835;SDS011;3963;42.658;23.298;2023-09-07T09:22:24;8.83;;;6.20;;
7835;SDS011;3963;42.658;23.298;2023-09-07T09:24:51;8.47;;;6.23;;
7835;SDS011;3963;42.658;23.298;2023-09-07T09:27:18;6.43;;;5.57;;
7835;SDS011;3963;42.658;23.298;2023-09-07T09:29:46;8.43;;;6.30;;
7835;SDS011;3963;42.658;23.298;2023-09-07T09:32:16;9.07;;;5.63;;
7835;SDS011;3963;42.658;23.298;2023-09-07T09:34:43;10.37;;;6.47;;
7835;SDS011;3963;42.658;23.298;2023-09-07T09:37:12;7.77;;;6.17;;
7835;SDS011;3963;42.658;23.298;2023-09-07T09:39:42;8.53;;;5.67;;
7835;SDS011;3963;42.658;23.298;2023-09-07T09:42:10;7.97;;;6.50;;
7835;SDS011;3963;42.658;23.298;2023-09-07T09:44:38;8.33;;;5.50;;
7835;SDS011;3963;42.658;23.298;2023-09-07T09:47:06;9.27;;;5.93;;
7835;SDS011;3963;42.658;23.298;2023-09-07T09:49:34;14.10;;;5.73;;
7835;SDS011;3963;42.658;23.298;2023-09-07T09:52:03;7.33;;;5.77;;
7835;SDS011;3963;42.658;23.298;2023-09-07T09:54:31;8.10;;;5.50;;
7835;SDS011;3963;42.658;23.298;2023-09-07T09:57:03;7.07;;;5.23;;
7835;SDS011;3963;42.658;23.298;2023-09-07T09:59:30;9.23;;;5.17;;
7835;SDS011;3963;42.658;23.298;2023-09-07T10:01:57;7.63;;;6.30;;
7835;SDS011;3963;42.658;23.298;2023-09-07T10:04:25;7.37;;;5.80;;
7835;SDS011;3963;42.658;23.298;2023-09-07T10:06:54;8.60;;;5.40;;
7835;SDS011;3963;42.658;23.298;2023-09-07T10:09:22;6.37;;;5.23;;
7835;SDS011;3963;42.658;23.298;2023-09-07T10:11:52;7.53;;;5.40;;
7835;SDS011;3963;42.658;23.298;2023-09-07T10:14:21;9.30;;;5.60;;
7835;SDS011;3963;42.658;23.298;2023-09-07T10:16:49;6.10;;;5.10;;
7835;SDS011;3963;42.658;23.298;2023-09-07T10:19:19;8.30;;;6.50;;
7835;SDS011;3963;42.658;23.298;2023-09-07T10:21:48;8.80;;;6.10;;
7835;SDS011;3963;42.658;23.298;2023-09-07T10:24:25;8.50;;;5.30;;
7835;SDS011;3963;42.658;23.298;2023-09-07T10:26:56;9.77;;;5.70;;
7835;SDS011;3963;42.658;23.298;2023-09-07T10:29:27;9.27;;;6.07;;
7835;SDS011;3963;42.658;23.298;2023-09-07T10:31:54;8.60;;;5.77;;
7835;SDS011;3963;42.658;23.298;2023-09-07T10:34:21;8.63;;;5.57;;
7835;SDS011;3963;42.658;23.298;2023-09-07T10:36:55;8.67;;;5.37;;
7835;SDS011;3963;42.658;23.298;2023-09-07T10:39:22;7.80;;;5.13;;
7835;SDS011;3963;42.658;23.298;2023-09-07T10:41:49;8.10;;;5.97;;
7835;SDS011;3963;42.658;23.298;2023-09-07T10:44:16;7.97;;;6.07;;
7835;SDS011;3963;42.658;23.298;2023-09-07T10:46:53;8.57;;;5.80;;
7835;SDS011;3963;42.658;23.298;2023-09-07T10:49:20;8.60;;;5.17;;
7835;SDS011;3963;42.658;23.298;2023-09-07T10:51:47;7.53;;;4.93;;
7835;SDS011;3963;42.658;23.298;2023-09-07T10:54:15;9.50;;;5.83;;
7835;SDS011;3963;42.658;23.298;2023-09-07T10:56:43;8.03;;;5.80;;
7835;SDS011;3963;42.658;23.298;2023-09-07T10:59:11;8.00;;;5.90;;
7835;SDS011;3963;42.658;23.298;2023-09-07T11:01:40;8.33;;;6.17;;
7835;SDS011;3963;42.658;23.298;2023-09-07T11:04:07;7.40;;;5.17;;
7835;SDS011;3963;42.658;23.298;2023-09-07T11:06:36;6.60;;;5.80;;
7835;SDS011;3963;42.658;23.298;2023-09-07T11:09:03;11.30;;;6.20;;
7835;SDS011;3963;42.658;23.298;2023-09-07T11:11:33;6.13;;;5.40;;
7835;SDS011;3963;42.658;23.298;2023-09-07T11:14:01;6.80;;;5.53;;
7835;SDS011;3963;42.658;23.298;2023-09-07T11:16:29;10.03;;;5.43;;
7835;SDS011;3963;42.658;23.298;2023-09-07T11:18:59;9.27;;;4.83;;
7835;SDS011;3963;42.658;23.298;2023-09-07T11:21:30;6.43;;;5.50;;
7835;SDS011;3963;42.658;23.298;2023-09-07T11:23:57;8.37;;;5.73;;
7835;SDS011;3963;42.658;23.298;2023-09-07T11:26:24;8.87;;;5.73;;
7835;SDS011;3963;42.658;23.298;2023-09-07T11:28:51;8.30;;;5.80;;
7835;SDS011;3963;42.658;23.298;2023-09-07T11:31:18;6.97;;;5.63;;
7835;SDS011;3963;42.658;23.298;2023-09-07T11:33:46;8.67;;;5.77;;
7835;SDS011;3963;42.658;23.298;2023-09-07T11:36:14;8.00;;;5.67;;
7835;SDS011;3963;42.658;23.298;2023-09-07T11:38:42;8.93;;;5.60;;
7835;SDS011;3963;42.658;23.298;2023-09-07T11:41:10;9.20;;;5.37;;
7835;SDS011;3963;42.658;23.298;2023-09-07T11:43:37;7.33;;;5.47;;
7835;SDS011;3963;42.658;23.298;2023-09-07T11:46:05;9.20;;;6.00;;
7835;SDS011;3963;42.658;23.298;2023-09-07T11:48:32;5.17;;;4.50;;
7835;SDS011;3963;42.658;23.298;2023-09-07T11:50:59;9.23;;;5.33;;
7835;SDS011;3963;42.658;23.298;2023-09-07T11:53:28;8.00;;;5.03;;
7835;SDS011;3963;42.658;23.298;2023-09-07T11:55:55;5.70;;;5.00;;
7835;SDS011;3963;42.658;23.298;2023-09-07T11:58:24;8.20;;;4.83;;
7835;SDS011;3963;42.658;23.298;2023-09-07T12:00:52;8.10;;;5.53;;
7835;SDS011;3963;42.658;23.298;2023-09-07T12:03:19;8.43;;;5.43;;
7835;SDS011;3963;42.658;23.298;2023-09-07T12:05:46;6.90;;;5.00;;
7835;SDS011;3963;42.658;23.298;2023-09-07T12:08:13;9.17;;;4.67;;
7835;SDS011;3963;42.658;23.298;2023-09-07T12:10:42;6.83;;;5.03;;
7835;SDS011;3963;42.658;23.298;2023-09-07T12:13:09;9.97;;;5.93;;
7835;SDS011;3963;42.658;23.298;2023-09-07T12:15:35;7.37;;;4.87;;
7835;SDS011;3963;42.658;23.298;2023-09-07T12:18:03;7.97;;;4.70;;
7835;SDS011;3963;42.658;23.298;2023-09-07T12:20:30;5.30;;;4.53;;
7835;SDS011;3963;42.658;23.298;2023-09-07T12:22:59;8.57;;;4.73;;
7835;SDS011;3963;42.658;23.298;2023-09-07T12:25:27;6.57;;;4.67;;
7835;SDS011;3963;42.658;23.298;2023-09-07T12:27:55;6.10;;;4.77;;
7835;SDS011;3963;42.658;23.298;2023-09-07T12:30:22;10.73;;;5.30;;
7835;SDS011;3963;42.658;23.298;2023-09-07T12:32:50;5.80;;;4.30;;
7835;SDS011;3963;42.658;23.298;2023-09-07T12:35:17;6.20;;;5.03;;
7835;SDS011;3963;42.658;23.298;2023-09-07T12:37:50;8.00;;;4.83;;
7835;SDS011;3963;42.658;23.298;2023-09-07T12:40:19;8.33;;;5.60;;
7835;SDS011;3963;42.658;23.298;2023-09-07T12:42:47;7.40;;;4.63;;
7835;SDS011;3963;42.658;23.298;2023-09-07T12:45:15;7.37;;;4.73;;
7835;SDS011;3963;42.658;23.298;2023-09-07T12:47:42;8.57;;;4.70;;
7835;SDS011;3963;42.658;23.298;2023-09-07T12:50:09;10.33;;;4.93;;
7835;SDS011;3963;42.658;23.298;2023-09-07T12:52:36;5.73;;;4.87;;
7835;SDS011;3963;42.658;23.298;2023-09-07T12:55:03;7.53;;;4.60;;
7835;SDS011;3963;42.658;23.298;2023-09-07T12:57:31;6.07;;;4.40;;
7835;SDS011;3963;42.658;23.298;2023-09-07T12:59:58;6.77;;;4.40;;
7835;SDS011;3963;42.658;23.298;2023-09-07T13:02:27;8.40;;;5.20;;
7835;SDS011;3963;42.658;23.298;2023-09-07T13:04:53;6.63;;;4.40;;
7835;SDS011;3963;42.658;23.298;2023-09-07T13:07:22;9.33;;;4.70;;
7835;SDS011;3963;42.658;23.298;2023-09-07T13:10:00;5.90;;;4.47;;
7835;SDS011;3963;42.658;23.298;2023-09-07T13:12:29;6.10;;;4.23;;
7835;SDS011;3963;42.658;23.298;2023-09-07T13:14:56;6.70;;;4.20;;
7835;SDS011;3963;42.658;23.298;2023-09-07T13:17:22;5.57;;;4.20;;
7835;SDS011;3963;42.658;23.298;2023-09-07T13:19:51;8.93;;;4.57;;
7835;SDS011;3963;42.658;23.298;2023-09-07T13:22:17;5.70;;;4.37;;
7835;SDS011;3963;42.658;23.298;2023-09-07T13:24:44;7.83;;;5.20;;
7835;SDS011;3963;42.658;23.298;2023-09-07T13:27:11;7.93;;;4.30;;
7835;SDS011;3963;42.658;23.298;2023-09-07T13:29:38;7.60;;;4.63;;
7835;SDS011;3963;42.658;23.298;2023-09-07T13:32:05;5.63;;;4.27;;
7835;SDS011;3963;42.658;23.298;2023-09-07T13:34:33;7.10;;;4.87;;
7835;SDS011;3963;42.658;23.298;2023-09-07T13:37:01;7.97;;;4.33;;
7835;SDS011;3963;42.658;23.298;2023-09-07T13:39:28;10.27;;;4.20;;
7835;SDS011;3963;42.658;23.298;2023-09-07T13:41:55;7.43;;;4.27;;
7835;SDS011;3963;42.658;23.298;2023-09-07T13:44:21;6.37;;;4.60;;
7835;SDS011;3963;42.658;23.298;2023-09-07T13:46:48;7.83;;;4.17;;
7835;SDS011;3963;42.658;23.298;2023-09-07T13:49:16;6.43;;;4.13;;
7835;SDS011;3963;42.658;23.298;2023-09-07T13:51:45;8.87;;;4.40;;
7835;SDS011;3963;42.658;23.298;2023-09-07T13:54:13;7.57;;;4.50;;
7835;SDS011;3963;42.658;23.298;2023-09-07T13:56:40;7.37;;;4.50;;
7835;SDS011;3963;42.658;23.298;2023-09-07T13:59:10;5.70;;;4.10;;
7835;SDS011;3963;42.658;23.298;2023-09-07T14:01:36;5.97;;;4.60;;
7835;SDS011;3963;42.658;23.298;2023-09-07T14:04:04;6.70;;;4.10;;
7835;SDS011;3963;42.658;23.298;2023-09-07T14:06:31;8.07;;;4.17;;
7835;SDS011;3963;42.658;23.298;2023-09-07T14:08:58;6.50;;;4.07;;
7835;SDS011;3963;42.658;23.298;2023-09-07T14:11:26;6.47;;;4.27;;
7835;SDS011;3963;42.658;23.298;2023-09-07T14:13:53;6.63;;;4.83;;
7835;SDS011;3963;42.658;23.298;2023-09-07T14:16:20;6.57;;;5.00;;
7835;SDS011;3963;42.658;23.298;2023-09-07T14:18:48;8.13;;;4.73;;
7835;SDS011;3963;42.658;23.298;2023-09-07T14:21:15;6.37;;;5.00;;
7835;SDS011;3963;42.658;23.298;2023-09-07T14:23:43;6.20;;;4.50;;
7835;SDS011;3963;42.658;23.298;2023-09-07T14:26:10;5.73;;;4.57;;
7835;SDS011;3963;42.658;23.298;2023-09-07T14:28:47;6.33;;;4.73;;
7835;SDS011;3963;42.658;23.298;2023-09-07T14:31:21;6.27;;;4.50;;
7835;SDS011;3963;42.658;23.298;2023-09-07T14:33:48;5.13;;;4.47;;
7835;SDS011;3963;42.658;23.298;2023-09-07T14:36:15;7.10;;;4.90;;
7835;SDS011;3963;42.658;23.298;2023-09-07T14:38:42;8.10;;;5.07;;
7835;SDS011;3963;42.658;23.298;2023-09-07T14:41:10;6.33;;;4.57;;
7835;SDS011;3963;42.658;23.298;2023-09-07T14:43:43;8.37;;;4.70;;
7835;SDS011;3963;42.658;23.298;2023-09-07T14:46:12;7.37;;;5.00;;
7835;SDS011;3963;42.658;23.298;2023-09-07T14:48:39;10.57;;;4.63;;
7835;SDS011;3963;42.658;23.298;2023-09-07T14:51:06;7.70;;;5.57;;
7835;SDS011;3963;42.658;23.298;2023-09-07T14:53:34;6.90;;;5.13;;